Time;durP1;ratioP1;P1;durP2;ratioP2;P2;SDS_P1;SDS_P2;PMS_P1;PMS_P2;Temp;Humidity;BMP_temperature;BMP_pressure;BME280_temperature;BME280_humidity;BME280_pressure;Samples;Min_cycle;Max_cycle;Signal;HPM_P1;HPM_P2
2022/07/07 00:00:34;;;;;;;;;;;;;;;24.59;58.91;100554.03;7409269;19;1368;-67
2022/07/07 00:03:02;;;;;;;;;;;;;;;24.66;59.23;100554.16;7408112;19;1628;-60
2022/07/07 00:05:31;;;;;;;;;;;;;;;24.68;59.08;100564.81;7409640;19;1403;-67
2022/07/07 00:07:59;;;;;;;;;;;;;;;24.66;59.42;100554.16;7409445;19;1300;-66
2022/07/07 00:10:28;;;;;;;;;;;;;;;24.64;59.66;100567.00;7409580;19;1451;-67
2022/07/07 00:12:56;;;;;;;;;;;;;;;24.65;59.56;100559.75;7409985;19;1375;-61
2022/07/07 00:15:27;;;;;;;;;;;;;;;24.64;59.43;100563.47;7407601;19;1869;-67
2022/07/07 00:17:55;;;;;;;;;;;;;;;24.56;59.59;100557.09;7408841;19;1720;-59
2022/07/07 00:20:24;;;;;;;;;;;;;;;24.52;59.85;100561.16;7408661;19;1557;-66
2022/07/07 00:22:52;;;;;;;;;;;;;;;24.44;59.46;100560.34;7409401;19;1276;-68
2022/07/07 00:25:20;;;;;;;;;;;;;;;24.57;59.32;100550.69;7410062;19;1463;-61
2022/07/07 00:27:49;;;;;;;;;;;;;;;24.63;59.05;100557.25;7409018;19;1708;-60
2022/07/07 00:30:17;;;;;;;;;;;;;;;24.63;59.38;100564.47;7409122;19;1501;-67
2022/07/07 00:32:48;;;;;;;;;;;;;;;24.65;59.17;100567.84;7408880;19;1490;-60
2022/07/07 00:35:16;;;;;;;;;;;;;;;24.65;59.34;100563.31;7406431;19;1867;-62
2022/07/07 00:37:45;;;;;;;;;;;;;;;24.65;59.09;100570.56;7409191;19;1352;-61
2022/07/07 00:40:14;;;;;;;;;;;;;;;24.63;59.12;100564.47;7408977;19;1721;-68
2022/07/07 00:42:42;;;;;;;;;;;;;;;24.66;58.88;100566.84;7408199;19;1538;-67
2022/07/07 00:45:12;;;;;;;;;;;;;;;24.63;59.32;100559.06;7407313;19;1384;-68
2022/07/07 00:47:41;;;;;;;;;;;;;;;24.63;59.18;100580.72;7407493;19;1502;-67
2022/07/07 00:50:12;;;;;;;;;;;;;;;24.64;59.31;100579.69;7408166;19;1348;-60
2022/07/07 00:52:40;;;;;;;;;;;;;;;24.59;59.35;100564.00;7409628;19;1305;-60
2022/07/07 00:55:10;;;;;;;;;;;;;;;24.61;59.26;100579.03;7407772;19;1861;-61
2022/07/07 00:57:39;;;;;;;;;;;;;;;24.58;59.40;100565.03;7408087;19;1688;-61
2022/07/07 01:00:10;;;;;;;;;;;;;;;24.57;58.94;100577.72;7406792;19;1458;-68
2022/07/07 01:02:38;;;;;;;;;;;;;;;24.61;59.22;100570.94;7406294;19;1494;-60
2022/07/07 01:05:08;;;;;;;;;;;;;;;24.61;59.12;100576.34;7407403;19;1347;-60
2022/07/07 01:07:40;;;;;;;;;;;;;;;24.63;59.10;100578.88;7407635;19;1388;-61
2022/07/07 01:10:09;;;;;;;;;;;;;;;24.64;59.02;100568.88;7406450;19;1681;-67
2022/07/07 01:12:38;;;;;;;;;;;;;;;24.55;59.11;100571.63;7407171;19;1289;-61
2022/07/07 01:15:08;;;;;;;;;;;;;;;24.55;59.23;100568.94;7406098;19;1860;-67
2022/07/07 01:17:37;;;;;;;;;;;;;;;24.54;59.10;100556.41;7407597;19;1517;-67
2022/07/07 01:20:06;;;;;;;;;;;;;;;24.65;58.94;100567.84;7406918;19;1388;-61
2022/07/07 01:22:36;;;;;;;;;;;;;;;24.57;59.11;100569.59;7408729;19;1355;-61
2022/07/07 01:25:07;;;;;;;;;;;;;;;24.58;59.06;100571.28;7406112;19;1732;-60
2022/07/07 01:27:36;;;;;;;;;;;;;;;24.45;59.54;100573.66;7405581;19;1747;-68
2022/07/07 01:30:05;;;;;;;;;;;;;;;24.36;59.51;100566.63;7406207;19;1458;-60
2022/07/07 01:32:33;;;;;;;;;;;;;;;24.31;59.52;100566.28;7406238;19;1533;-62
2022/07/07 01:35:02;;;;;;;;;;;;;;;24.36;59.55;100569.31;7406550;19;1849;-67
2022/07/07 01:37:30;;;;;;;;;;;;;;;24.41;59.47;100575.03;7406150;19;1522;-68
2022/07/07 01:39:58;;;;;;;;;;;;;;;24.50;59.22;100578.56;7405267;19;1641;-66
2022/07/07 01:42:29;;;;;;;;;;;;;;;24.50;59.03;100568.63;7405867;19;1495;-60
2022/07/07 01:44:58;;;;;;;;;;;;;;;24.54;59.20;100583.47;7406644;19;1264;-68
2022/07/07 01:47:27;;;;;;;;;;;;;;;24.54;59.15;100580.75;7406164;19;1471;-67
2022/07/07 01:49:55;;;;;;;;;;;;;;;24.56;59.15;100580.59;7405380;19;1443;-62
2022/07/07 01:52:24;;;;;;;;;;;;;;;24.49;59.32;100577.72;7406171;19;1479;-68
2022/07/07 01:54:52;;;;;;;;;;;;;;;24.48;59.49;100580.59;7405878;19;1866;-60
2022/07/07 01:57:21;;;;;;;;;;;;;;;24.48;58.94;100578.72;7405190;19;1373;-60
2022/07/07 01:59:51;;;;;;;;;;;;;;;24.47;59.21;100593.28;7406826;19;1459;-68
2022/07/07 02:02:20;;;;;;;;;;;;;;;24.40;59.54;100582.31;7395691;19;1482;-67
2022/07/07 02:04:48;;;;;;;;;;;;;;;24.42;59.83;100590.25;7405744;19;1340;-61
2022/07/07 02:07:17;;;;;;;;;;;;;;;24.48;59.38;100578.72;7404688;19;1471;-61
2022/07/07 02:09:45;;;;;;;;;;;;;;;24.46;59.64;100609.66;7405570;19;1744;-60
2022/07/07 02:12:14;;;;;;;;;;;;;;;24.44;59.62;100588.22;7404995;19;1332;-60
2022/07/07 02:14:42;;;;;;;;;;;;;;;24.42;59.68;100574.03;7402500;19;1312;-61
2022/07/07 02:17:13;;;;;;;;;;;;;;;24.37;59.48;100592.63;7403187;19;1866;-60
2022/07/07 02:19:42;;;;;;;;;;;;;;;24.32;59.72;100597.72;7406652;19;1356;-60
2022/07/07 02:22:10;;;;;;;;;;;;;;;24.28;59.94;100607.19;7400830;19;1590;-60
2022/07/07 02:24:38;;;;;;;;;;;;;;;24.37;59.50;100607.00;7405205;19;1612;-60
2022/07/07 02:27:07;;;;;;;;;;;;;;;24.36;59.38;100618.81;7404939;19;1274;-60
2022/07/07 02:29:35;;;;;;;;;;;;;;;24.27;59.09;100627.13;7403546;19;1273;-67
2022/07/07 02:32:04;;;;;;;;;;;;;;;24.29;59.09;100615.13;7403300;19;1385;-60
2022/07/07 02:34:34;;;;;;;;;;;;;;;24.39;59.11;100623.88;7405690;19;1474;-67
2022/07/07 02:37:03;;;;;;;;;;;;;;;24.32;59.25;100612.06;7402334;19;1865;-68
2022/07/07 02:39:31;;;;;;;;;;;;;;;24.31;59.01;100623.03;7404558;19;1650;-67
2022/07/07 02:42:00;;;;;;;;;;;;;;;24.38;59.27;100629.44;7399869;19;1735;-68
2022/07/07 02:44:28;;;;;;;;;;;;;;;24.39;59.13;100644.63;7404782;19;1471;-67
2022/07/07 02:46:57;;;;;;;;;;;;;;;24.41;59.07;100658.81;7404865;19;1341;-68
2022/07/07 02:49:25;;;;;;;;;;;;;;;24.32;58.84;100644.50;7404607;19;1661;-68
2022/07/07 02:51:56;;;;;;;;;;;;;;;24.30;58.85;100656.50;7403583;19;1759;-60
2022/07/07 02:54:24;;;;;;;;;;;;;;;24.25;59.06;100656.16;7404062;19;1463;-60
2022/07/07 02:56:53;;;;;;;;;;;;;;;24.29;59.02;100647.56;7402574;19;1857;-67
2022/07/07 02:59:21;;;;;;;;;;;;;;;24.28;58.96;100659.38;7401602;19;1454;-60
2022/07/07 03:01:49;;;;;;;;;;;;;;;24.29;58.93;100660.22;7403659;19;1480;-61
2022/07/07 03:04:18;;;;;;;;;;;;;;;24.38;58.99;100670.00;7404957;19;1144;-61
2022/07/07 03:06:46;;;;;;;;;;;;;;;24.32;59.18;100666.13;7403372;19;1605;-60
2022/07/07 03:09:17;;;;;;;;;;;;;;;24.36;59.13;100666.63;7402581;19;1383;-68
2022/07/07 03:11:45;;;;;;;;;;;;;;;24.21;59.26;100670.03;7404162;19;1709;-68
2022/07/07 03:14:14;;;;;;;;;;;;;;;24.13;59.75;100661.97;7402313;19;1380;-67
2022/07/07 03:16:42;;;;;;;;;;;;;;;24.12;59.73;100662.97;7401677;19;1825;-61
2022/07/07 03:19:10;;;;;;;;;;;;;;;24.30;59.17;100684.38;7404529;19;1257;-67
2022/07/07 03:21:38;;;;;;;;;;;;;;;24.34;59.32;100679.47;7402326;19;1462;-61
2022/07/07 03:24:07;;;;;;;;;;;;;;;24.37;58.96;100673.69;7400943;19;1384;-60
2022/07/07 03:26:38;;;;;;;;;;;;;;;24.47;58.95;100689.72;7401404;19;1386;-60
2022/07/07 03:29:07;;;;;;;;;;;;;;;24.38;59.23;100681.63;7402904;19;1498;-67
2022/07/07 03:31:35;;;;;;;;;;;;;;;24.35;59.35;100692.81;7402658;19;1335;-61
2022/07/07 03:34:03;;;;;;;;;;;;;;;24.28;59.29;100685.56;7402165;19;1358;-59
2022/07/07 03:36:32;;;;;;;;;;;;;;;24.28;59.16;100675.59;7401761;19;1864;-60
2022/07/07 03:39:00;;;;;;;;;;;;;;;24.29;59.15;100665.63;7402507;19;1483;-68
2022/07/07 03:41:28;;;;;;;;;;;;;;;24.38;59.17;100681.63;7403659;19;1298;-68
2022/07/07 03:43:59;;;;;;;;;;;;;;;24.37;58.89;100673.69;7401050;19;1483;-60
2022/07/07 03:46:28;;;;;;;;;;;;;;;24.45;58.81;100676.38;7403281;19;1345;-67
2022/07/07 03:48:56;;;;;;;;;;;;;;;24.42;59.00;100685.69;7402745;19;1405;-67
2022/07/07 03:51:25;;;;;;;;;;;;;;;24.44;58.95;100685.50;7401656;19;1553;-67
2022/07/07 03:53:53;;;;;;;;;;;;;;;24.39;59.20;100685.19;7401419;19;1368;-62
2022/07/07 03:56:21;;;;;;;;;;;;;;;24.42;59.43;100698.34;7401070;19;1830;-67
2022/07/07 03:58:50;;;;;;;;;;;;;;;24.46;59.25;100690.75;7402583;19;1277;-60
2022/07/07 04:01:21;;;;;;;;;;;;;;;24.37;59.37;100682.66;7399844;19;1553;-60
2022/07/07 04:03:49;;;;;;;;;;;;;;;24.35;59.44;100679.31;7402538;19;1314;-61
2022/07/07 04:06:17;;;;;;;;;;;;;;;24.34;59.46;100682.16;7401950;19;1619;-60
2022/07/07 04:08:46;;;;;;;;;;;;;;;24.32;59.40;100678.78;7400075;19;1487;-60
2022/07/07 04:11:14;;;;;;;;;;;;;;;24.29;59.87;100681.81;7404642;19;1502;-67
2022/07/07 04:13:42;;;;;;;;;;;;;;;24.21;59.96;100680.84;7408001;19;1573;-68
2022/07/07 04:16:11;;;;;;;;;;;;;;;24.26;60.06;100672.22;7408241;19;1869;-67
2022/07/07 04:18:42;;;;;;;;;;;;;;;24.18;60.51;100675.78;7409926;19;1332;-61
2022/07/07 04:21:10;;;;;;;;;;;;;;;23.94;60.84;100679.38;7408057;19;1264;-67
2022/07/07 04:23:38;;;;;;;;;;;;;;;24.04;60.67;100678.34;7408549;19;1301;-60
2022/07/07 04:26:06;;;;;;;;;;;;;;;24.14;60.60;100698.75;7406469;19;1272;-60
2022/07/07 04:28:35;;;;;;;;;;;;;;;24.16;60.69;100696.72;7407582;19;1375;-59
2022/07/07 04:31:03;;;;;;;;;;;;;;;24.10;60.47;100694.72;7408571;19;1309;-68
2022/07/07 04:33:32;;;;;;;;;;;;;;;24.22;60.63;100704.13;7409706;19;1113;-62
2022/07/07 04:36:03;;;;;;;;;;;;;;;24.25;60.61;100708.34;7407045;19;1844;-61
2022/07/07 04:38:31;;;;;;;;;;;;;;;24.25;60.81;100731.84;7409177;19;1518;-69
2022/07/07 04:40:59;;;;;;;;;;;;;;;24.11;60.82;100719.84;7406043;19;1486;-60
2022/07/07 04:43:28;;;;;;;;;;;;;;;24.10;61.11;100726.28;7405907;19;1617;-69
2022/07/07 04:45:56;;;;;;;;;;;;;;;24.13;60.95;100726.81;7408274;19;1367;-61
2022/07/07 04:48:25;;;;;;;;;;;;;;;24.12;60.88;100741.31;7407452;19;1408;-60
2022/07/07 04:50:53;;;;;;;;;;;;;;;24.15;60.63;100735.56;7407214;19;1457;-61
2022/07/07 04:53:24;;;;;;;;;;;;;;;24.09;60.45;100740.81;7407794;19;1584;-61
2022/07/07 04:55:52;;;;;;;;;;;;;;;24.00;60.53;100753.47;7408501;19;1376;-61
2022/07/07 04:58:21;;;;;;;;;;;;;;;24.09;60.24;100762.41;7408355;19;1346;-69
2022/07/07 05:00:49;;;;;;;;;;;;;;;24.02;60.01;100764.97;7407099;19;1384;-60
2022/07/07 05:03:17;;;;;;;;;;;;;;;24.05;60.19;100788.06;7405810;19;1524;-69
2022/07/07 05:05:46;;;;;;;;;;;;;;;23.92;60.04;100754.31;7406691;19;1399;-61
2022/07/07 05:08:14;;;;;;;;;;;;;;;24.05;59.99;100783.50;7407770;19;1510;-70
2022/07/07 05:10:45;;;;;;;;;;;;;;;23.96;59.72;100781.84;7408754;19;1364;-61
2022/07/07 05:13:13;;;;;;;;;;;;;;;24.04;59.68;100784.53;7407251;19;1316;-70
2022/07/07 05:15:42;;;;;;;;;;;;;;;24.00;59.57;100764.28;7407904;19;1331;-61
2022/07/07 05:18:10;;;;;;;;;;;;;;;23.99;59.36;100758.03;7404261;19;1863;-69
2022/07/07 05:20:39;;;;;;;;;;;;;;;23.88;59.08;100755.66;7406060;19;1502;-69
2022/07/07 05:23:07;;;;;;;;;;;;;;;23.74;59.67;100753.59;7407242;19;1371;-70
2022/07/07 05:25:35;;;;;;;;;;;;;;;23.93;59.29;100757.84;7407677;19;1291;-61
2022/07/07 05:28:06;;;;;;;;;;;;;;;23.92;58.95;100756.19;7406910;19;1269;-60
2022/07/07 05:30:35;;;;;;;;;;;;;;;23.87;59.21;100755.81;7407871;19;1347;-61
2022/07/07 05:33:07;;;;;;;;;;;;;;;24.04;58.78;100760.22;7406674;19;1763;-70
2022/07/07 05:35:36;;;;;;;;;;;;;;;24.08;58.62;100776.94;7406449;19;1359;-67
2022/07/07 05:38:04;;;;;;;;;;;;;;;23.90;58.68;100777.09;7403573;19;1869;-66
2022/07/07 05:40:33;;;;;;;;;;;;;;;23.92;58.70;100791.28;7404475;19;1420;-61
2022/07/07 05:43:01;;;;;;;;;;;;;;;23.98;58.73;100796.03;7405766;19;1355;-66
2022/07/07 05:45:32;;;;;;;;;;;;;;;24.09;58.04;100811.88;7405494;19;1439;-70
2022/07/07 05:48:00;;;;;;;;;;;;;;;23.78;57.93;100801.72;7404417;19;1302;-68
2022/07/07 05:50:29;;;;;;;;;;;;;;;23.85;58.07;100818.09;7404966;19;1499;-67
2022/07/07 05:52:57;;;;;;;;;;;;;;;23.85;58.23;100830.75;7403842;19;1197;-60
2022/07/07 05:55:26;;;;;;;;;;;;;;;23.91;58.28;100847.13;7404127;19;1560;-59
2022/07/07 05:57:54;;;;;;;;;;;;;;;23.62;58.00;100834.06;7403219;19;1843;-71
2022/07/07 06:00:23;;;;;;;;;;;;;;;23.67;58.33;100845.19;7403463;19;1404;-66
2022/07/07 06:02:54;;;;;;;;;;;;;;;23.70;58.21;100854.84;7402896;19;1481;-66
2022/07/07 06:05:22;;;;;;;;;;;;;;;23.79;57.99;100859.28;7404391;19;1400;-60
2022/07/07 06:07:51;;;;;;;;;;;;;;;23.79;58.14;100852.00;7406019;19;1301;-60
2022/07/07 06:10:19;;;;;;;;;;;;;;;23.77;58.05;100872.94;7404083;19;1154;-60
2022/07/07 06:12:48;;;;;;;;;;;;;;;23.78;58.04;100882.75;7403676;19;1298;-66
2022/07/07 06:15:17;;;;;;;;;;;;;;;23.59;59.73;100891.06;7403903;19;1381;-59
2022/07/07 06:17:46;;;;;;;;;;;;;;;23.62;59.60;100896.16;7402732;19;1866;-73
2022/07/07 06:20:17;;;;;;;;;;;;;;;23.58;60.43;100898.34;7404583;19;1349;-69
2022/07/07 06:22:45;;;;;;;;;;;;;;;23.36;61.14;100899.75;7406179;19;1277;-58
2022/07/07 06:25:13;;;;;;;;;;;;;;;23.64;60.87;100907.63;7405636;19;1596;-60
2022/07/07 06:27:42;;;;;;;;;;;;;;;23.66;60.70;100902.91;7403999;19;1644;-70
2022/07/07 06:30:11;;;;;;;;;;;;;;;23.66;61.18;100905.63;7403759;19;1416;-65
2022/07/07 06:32:40;;;;;;;;;;;;;;;23.28;62.20;100904.25;7404852;19;1454;-69
2022/07/07 06:35:09;;;;;;;;;;;;;;;23.35;61.90;100906.16;7402336;19;1336;-59
2022/07/07 06:37:40;;;;;;;;;;;;;;;23.50;61.73;100903.69;7404981;19;1859;-63
2022/07/07 06:40:09;;;;;;;;;;;;;;;23.95;61.34;100920.59;7403633;19;1796;-75
2022/07/07 06:42:37;;;;;;;;;;;;;;;24.11;60.87;100900.88;7405817;19;1554;-68
2022/07/07 06:45:06;;;;;;;;;;;;;;;24.34;60.97;100906.50;7403650;19;1487;-66
2022/07/07 06:47:35;;;;;;;;;;;;;;;24.45;60.47;100898.03;7404983;19;1385;-60
2022/07/07 06:50:03;;;;;;;;;;;;;;;24.50;60.52;100890.31;7404896;19;1412;-60
2022/07/07 06:52:31;;;;;;;;;;;;;;;24.52;60.63;100888.28;7405454;19;1809;-60
2022/07/07 06:55:02;;;;;;;;;;;;;;;24.56;61.08;100894.19;7403299;19;1723;-67
2022/07/07 06:57:31;;;;;;;;;;;;;;;24.55;60.71;100882.53;7401511;19;1877;-59
2022/07/07 06:59:59;;;;;;;;;;;;;;;24.64;60.36;100874.44;7401824;19;1201;-61
2022/07/07 07:02:27;;;;;;;;;;;;;;;24.64;60.64;100877.97;7402468;19;1539;-60
2022/07/07 07:04:56;;;;;;;;;;;;;;;24.64;60.64;100877.13;7404346;19;1292;-63
2022/07/07 07:07:24;;;;;;;;;;;;;;;24.68;60.94;100864.94;7403137;19;1561;-57
2022/07/07 07:09:53;;;;;;;;;;;;;;;24.76;60.80;100873.06;7403138;19;1708;-62
2022/07/07 07:12:24;;;;;;;;;;;;;;;24.69;61.76;100874.75;7400470;19;1518;-57
2022/07/07 07:14:52;;;;;;;;;;;;;;;24.70;61.22;100890.81;7402155;19;1911;-62
2022/07/07 07:17:20;;;;;;;;;;;;;;;24.65;61.57;100873.38;7400147;19;1881;-56
2022/07/07 07:19:49;;;;;;;;;;;;;;;24.71;61.19;100886.22;7402717;19;1248;-57
2022/07/07 07:22:17;;;;;;;;;;;;;;;24.63;61.32;100875.44;7400096;19;1376;-57
2022/07/07 07:24:46;;;;;;;;;;;;;;;24.68;61.10;100860.38;7399173;19;1425;-60
2022/07/07 07:27:14;;;;;;;;;;;;;;;24.74;61.36;100858.84;7400723;19;1322;-73
2022/07/07 07:29:45;;;;;;;;;;;;;;;24.77;61.53;100869.31;7401930;19;1254;-58
2022/07/07 07:32:14;;;;;;;;;;;;;;;24.77;61.36;100863.91;7401004;19;1392;-64
2022/07/07 07:34:42;;;;;;;;;;;;;;;24.76;61.67;100873.06;7401940;19;1414;-66
2022/07/07 07:37:10;;;;;;;;;;;;;;;24.80;61.61;100879.81;7398178;19;1873;-66
2022/07/07 07:39:39;;;;;;;;;;;;;;;24.88;61.04;100854.59;7400722;19;1470;-68
2022/07/07 07:42:07;;;;;;;;;;;;;;;24.83;61.22;100862.38;7399740;19;1167;-57
2022/07/07 07:47:19;;;;;;;;;;;;;;;24.91;61.36;100876.75;7408820;19;1352;-58
2022/07/07 07:49:48;;;;;;;;;;;;;;;24.94;61.12;100862.03;7409270;19;1190;-71
2022/07/07 07:52:16;;;;;;;;;;;;;;;24.95;61.51;100853.75;7406512;19;1375;-58
2022/07/07 07:54:44;;;;;;;;;;;;;;;24.97;61.75;100845.47;7409299;19;1276;-64
2022/07/07 07:57:13;;;;;;;;;;;;;;;24.91;62.56;100851.53;7407800;19;1868;-70
2022/07/07 07:59:41;;;;;;;;;;;;;;;24.97;62.11;100846.31;7408747;19;1676;-58
2022/07/07 08:02:09;;;;;;;;;;;;;;;24.97;61.57;100851.72;7404946;19;1460;-57
2022/07/07 08:04:40;;;;;;;;;;;;;;;24.90;61.83;100825.53;7408100;19;1194;-61
2022/07/07 08:07:09;;;;;;;;;;;;;;;24.91;61.87;100838.88;7407857;19;1786;-61
2022/07/07 08:09:37;;;;;;;;;;;;;;;24.92;61.54;100835.16;7406219;19;1474;-59
2022/07/07 08:12:06;;;;;;;;;;;;;;;24.81;60.99;100849.88;7405542;19;1233;-62
2022/07/07 08:14:35;;;;;;;;;;;;;;;24.85;61.21;100846.81;7405998;19;1286;-66
2022/07/07 08:17:03;;;;;;;;;;;;;;;24.87;61.75;100853.78;7405229;19;1876;-58
2022/07/07 08:19:31;;;;;;;;;;;;;;;24.88;61.69;100839.22;7403949;19;1197;-63
2022/07/07 08:22:02;;;;;;;;;;;;;;;24.89;61.31;100840.06;7405828;19;1380;-63
2022/07/07 08:24:31;;;;;;;;;;;;;;;24.89;61.62;100850.88;7407152;19;1543;-62
2022/07/07 08:26:59;;;;;;;;;;;;;;;24.83;61.83;100847.03;7405405;19;1350;-63
2022/07/07 08:29:28;;;;;;;;;;;;;;;24.79;62.02;100845.69;7406563;19;1400;-65
2022/07/07 08:31:56;;;;;;;;;;;;;;;24.80;62.27;100852.75;7405267;19;1370;-60
2022/07/07 08:34:25;;;;;;;;;;;;;;;24.87;62.18;100855.59;7406846;19;1456;-61
2022/07/07 08:36:54;;;;;;;;;;;;;;;24.77;61.94;100847.69;7405621;19;1256;-62
2022/07/07 08:39:25;;;;;;;;;;;;;;;24.73;61.82;100852.63;7404609;19;1847;-62
2022/07/07 08:41:53;;;;;;;;;;;;;;;24.65;62.02;100849.06;7406465;19;1373;-63
2022/07/07 08:44:22;;;;;;;;;;;;;;;24.69;61.87;100858.50;7407123;19;1318;-62
2022/07/07 08:46:50;;;;;;;;;;;;;;;24.66;61.82;100857.00;7409248;19;1312;-62
2022/07/07 08:49:18;;;;;;;;;;;;;;;24.65;61.97;100859.88;7407701;19;1775;-61
2022/07/07 08:51:47;;;;;;;;;;;;;;;24.67;62.07;100865.94;7404893;19;1550;-61
2022/07/07 08:54:17;;;;;;;;;;;;;;;24.70;62.41;100866.47;7407115;19;1540;-62
2022/07/07 08:56:48;;;;;;;;;;;;;;;24.74;62.12;100869.69;7406046;19;1569;-62
2022/07/07 08:59:17;;;;;;;;;;;;;;;24.77;62.19;100874.72;7401792;19;1857;-61
2022/07/07 09:01:54;;;;;;;;;;;;;;;24.82;62.09;100899.41;7403797;19;1493;-61
2022/07/07 09:04:23;;;;;;;;;;;;;;;24.77;61.66;100878.28;7406463;19;1538;-61
2022/07/07 09:06:54;;;;;;;;;;;;;;;24.75;61.80;100890.28;7408991;19;1504;-62
2022/07/07 09:09:30;;;;;;;;;;;;;;;24.82;61.97;100899.41;7408457;19;1326;-61
2022/07/07 09:12:10;;;;;;;;;;;;;;;24.79;61.79;100883.53;7408448;19;1640;-62
2022/07/07 09:14:40;;;;;;;;;;;;;;;24.83;61.47;100900.25;7408069;19;1566;-63
2022/07/07 09:17:17;;;;;;;;;;;;;;;24.78;60.90;100893.50;7407717;19;1550;-61
2022/07/07 09:19:46;;;;;;;;;;;;;;;24.77;60.84;100897.22;7407161;19;1854;-62
2022/07/07 09:22:15;;;;;;;;;;;;;;;24.78;60.95;100896.19;7408803;19;1705;-62
2022/07/07 09:24:56;;;;;;;;;;;;;;;24.76;60.89;100897.38;7407338;19;1695;-61
2022/07/07 09:27:27;;;;;;;;;;;;;;;24.76;60.53;100913.63;7407863;19;2094;-61
2022/07/07 09:29:55;;;;;;;;;;;;;;;24.76;60.37;100894.69;7407536;19;1323;-61
2022/07/07 09:32:23;;;;;;;;;;;;;;;24.71;60.43;100903.31;7407361;19;1665;-62
2022/07/07 09:34:52;;;;;;;;;;;;;;;24.65;60.23;100889.63;7408289;19;1617;-62
2022/07/07 09:40:07;;;;;;;;;;;;;;;24.67;60.51;100899.28;7408554;19;1613;-62
2022/07/07 09:42:38;;;;;;;;;;;;;;;24.67;60.17;100895.69;7407527;19;1527;-62
2022/07/07 09:45:08;;;;;;;;;;;;;;;24.67;59.69;100901.09;7407645;19;1534;-62
2022/07/07 09:47:37;;;;;;;;;;;;;;;24.73;59.36;100890.47;7407601;19;1534;-62
2022/07/07 09:50:07;;;;;;;;;;;;;;;24.76;59.88;100897.38;7408755;19;1040;-62
2022/07/07 09:52:36;;;;;;;;;;;;;;;24.79;59.89;100907.88;7407825;19;1316;-62
2022/07/07 09:55:06;;;;;;;;;;;;;;;24.78;59.79;100898.91;7407694;19;1673;-62
2022/07/07 09:57:34;;;;;;;;;;;;;;;24.74;59.79;100902.97;7407939;19;1857;-62
2022/07/07 10:00:06;;;;;;;;;;;;;;;24.75;59.73;100903.81;7406364;19;1618;-61
2022/07/07 10:02:36;;;;;;;;;;;;;;;24.74;59.46;100902.13;7405249;19;1565;-61
2022/07/07 10:05:06;;;;;;;;;;;;;;;24.74;59.44;100896.72;7408408;19;1601;-62
2022/07/07 10:07:37;;;;;;;;;;;;;;;24.70;59.45;100900.78;7407902;19;1592;-62
2022/07/07 10:10:07;;;;;;;;;;;;;;;24.68;59.21;100910.94;7407758;19;1688;-60
2022/07/07 10:12:36;;;;;;;;;;;;;;;24.69;59.17;100897.25;7406592;19;1637;-62
2022/07/07 10:15:11;;;;;;;;;;;;;;;24.65;58.97;100919.34;7406612;19;1498;-63
2022/07/07 10:17:40;;;;;;;;;;;;;;;24.59;58.86;100918.19;7406599;19;1352;-61
2022/07/07 10:20:09;;;;;;;;;;;;;;;24.62;58.85;100909.75;7406577;19;1514;-61
2022/07/07 10:22:38;;;;;;;;;;;;;;;24.57;59.08;100920.19;7408202;19;968;-62
2022/07/07 10:25:09;;;;;;;;;;;;;;;24.58;58.95;100936.25;7406664;19;2088;-62
2022/07/07 10:27:39;;;;;;;;;;;;;;;24.57;58.89;100918.38;7405546;19;1590;-62
2022/07/07 10:30:11;;;;;;;;;;;;;;;24.58;58.62;100909.22;7406333;19;1632;-62
2022/07/07 10:32:41;;;;;;;;;;;;;;;24.55;58.54;100916.81;7406375;19;1612;-62
2022/07/07 10:35:10;;;;;;;;;;;;;;;24.58;58.44;100920.03;7404885;19;1208;-62
2022/07/07 10:37:43;;;;;;;;;;;;;;;24.61;58.58;100924.25;7406853;19;1636;-61
2022/07/07 10:40:14;;;;;;;;;;;;;;;24.57;58.25;100906.69;7404464;19;1882;-62
2022/07/07 10:42:50;;;;;;;;;;;;;;;24.52;58.64;100915.31;7406623;19;1537;-62
2022/07/07 10:45:22;;;;;;;;;;;;;;;24.53;58.49;100927.81;7406131;19;1656;-62
2022/07/07 10:47:50;;;;;;;;;;;;;;;24.59;58.61;100932.56;7405944;19;1525;-61
2022/07/07 10:50:26;;;;;;;;;;;;;;;24.57;58.28;100918.38;7406653;19;1621;-62
2022/07/07 10:52:55;;;;;;;;;;;;;;;24.61;58.57;100917.00;7405841;19;1514;-62
2022/07/07 10:55:23;;;;;;;;;;;;;;;24.62;58.45;100909.75;7407398;19;1007;-62
2022/07/07 10:57:51;;;;;;;;;;;;;;;24.58;58.19;100925.44;7406045;19;1448;-62
2022/07/07 11:00:28;;;;;;;;;;;;;;;24.65;58.23;100941.88;7405484;19;1669;-62
2022/07/07 11:03:13;;;;;;;;;;;;;;;24.69;58.10;100916.16;7403535;19;1775;-62
2022/07/07 11:05:45;;;;;;;;;;;;;;;24.69;58.02;100909.91;7404264;19;1549;-61
2022/07/07 11:08:18;;;;;;;;;;;;;;;24.68;58.06;100900.94;7404515;19;1632;-61
2022/07/07 11:10:47;;;;;;;;;;;;;;;24.66;57.77;100921.06;7405629;19;1431;-62
2022/07/07 11:13:16;;;;;;;;;;;;;;;24.67;57.89;100917.34;7405856;19;1424;-62
2022/07/07 11:15:49;;;;;;;;;;;;;;;24.69;58.01;100904.47;7406018;19;932;-61
2022/07/07 11:18:18;;;;;;;;;;;;;;;24.69;58.14;100905.34;7405470;19;1859;-62
2022/07/07 11:20:54;;;;;;;;;;;;;;;24.68;58.26;100909.06;7402918;19;1620;-61
2022/07/07 11:23:22;;;;;;;;;;;;;;;24.61;58.25;100914.31;7404991;19;1542;-62
2022/07/07 11:25:52;;;;;;;;;;;;;;;24.60;58.27;100914.47;7404177;19;1600;-62
2022/07/07 11:28:20;;;;;;;;;;;;;;;24.63;58.04;100916.84;7404970;19;1529;-62
2022/07/07 11:30:51;;;;;;;;;;;;;;;24.68;57.79;100921.75;7405608;19;1616;-62
2022/07/07 11:33:23;;;;;;;;;;;;;;;24.68;57.76;100919.88;7405315;19;1616;-62
2022/07/07 11:35:52;;;;;;;;;;;;;;;24.68;57.53;100910.94;7402838;19;1275;-61
2022/07/07 11:38:20;;;;;;;;;;;;;;;24.67;57.77;100917.34;7404635;19;1855;-62
2022/07/07 11:40:49;;;;;;;;;;;;;;;24.76;58.03;100922.56;7405304;19;1522;-62
2022/07/07 11:43:22;;;;;;;;;;;;;;;24.69;58.08;100920.72;7404549;19;1763;-61
2022/07/07 11:45:54;;;;;;;;;;;;;;;24.72;57.62;100931.19;7404396;19;1554;-62
2022/07/07 11:48:23;;;;;;;;;;;;;;;24.66;57.41;100910.25;7403418;19;1608;-61
2022/07/07 11:50:52;;;;;;;;;;;;;;;24.69;57.56;100920.72;7401152;19;1518;-62
2022/07/07 11:53:24;;;;;;;;;;;;;;;24.68;57.76;100917.16;7404006;19;1518;-62
2022/07/07 11:55:52;;;;;;;;;;;;;;;24.65;57.57;100919.34;7403012;19;1596;-62
2022/07/07 11:58:21;;;;;;;;;;;;;;;24.68;57.59;100919.03;7404303;19;1864;-62
2022/07/07 12:00:49;;;;;;;;;;;;;;;24.66;56.94;100896.72;7404555;19;1585;-62
2022/07/07 12:03:20;;;;;;;;;;;;;;;24.69;56.93;100916.16;7401636;19;1380;-62
2022/07/07 12:05:49;;;;;;;;;;;;;;;24.62;57.00;100912.44;7402535;19;1537;-61
2022/07/07 12:08:17;;;;;;;;;;;;;;;24.61;57.18;100911.59;7404005;19;1577;-62
2022/07/07 12:10:51;;;;;;;;;;;;;;;24.64;56.85;100918.53;7403132;19;1704;-62
2022/07/07 12:13:20;;;;;;;;;;;;;;;24.67;56.90;100911.91;7403844;19;1542;-62
2022/07/07 12:15:49;;;;;;;;;;;;;;;24.61;57.05;100918.84;7403296;19;1600;-62
2022/07/07 12:18:23;;;;;;;;;;;;;;;24.61;56.52;100913.44;7404270;19;1537;-62
2022/07/07 12:20:58;;;;;;;;;;;;;;;24.61;56.53;100914.31;7402636;19;1542;-62
2022/07/07 12:23:26;;;;;;;;;;;;;;;24.60;56.53;100909.91;7403502;19;1616;-62
2022/07/07 12:25:55;;;;;;;;;;;;;;;24.64;56.51;100901.47;7403916;19;1541;-61
2022/07/07 12:28:35;;;;;;;;;;;;;;;24.69;56.16;100909.91;7403911;19;1605;-61
2022/07/07 12:31:04;;;;;;;;;;;;;;;24.70;56.63;100898.91;7399398;19;1425;-60
2022/07/07 12:33:36;;;;;;;;;;;;;;;24.76;56.96;100911.75;7407005;19;1224;-64
2022/07/07 12:36:15;;;;;;;;;;;;;;;24.76;56.00;100908.22;7405777;19;1392;-61
2022/07/07 12:38:46;;;;;;;;;;;;;;;24.74;56.36;100905.66;7407875;19;1860;-61
2022/07/07 12:41:27;;;;;;;;;;;;;;;24.75;57.41;100915.50;7406607;19;1216;-60
2022/07/07 12:43:56;;;;;;;;;;;;;;;24.71;56.40;100906.03;7406636;19;1181;-61
2022/07/07 12:46:35;;;;;;;;;;;;;;;24.72;56.56;100909.56;7404945;19;1289;-64
2022/07/07 12:49:06;;;;;;;;;;;;;;;24.76;56.35;100908.22;7407442;19;1341;-60
2022/07/07 12:51:37;;;;;;;;;;;;;;;24.73;56.59;100905.84;7408234;19;1408;-64
2022/07/07 12:54:05;;;;;;;;;;;;;;;24.75;57.02;100892.97;7407901;19;1403;-64
2022/07/07 12:56:34;;;;;;;;;;;;;;;24.74;57.17;100902.97;7409039;19;1517;-64
2022/07/07 12:59:03;;;;;;;;;;;;;;;24.77;57.71;100909.88;7406719;19;1849;-62
2022/07/07 13:01:31;;;;;;;;;;;;;;;24.72;57.06;100890.63;7405824;19;1404;-61
2022/07/07 13:04:00;;;;;;;;;;;;;;;24.75;57.14;100909.22;7407916;19;1379;-61